sensor_id;sensor_type;location;lat;lon;timestamp;P1;durP1;ratioP1;P2;durP2;ratioP2
23539;SDS011;11947;50.810;4.394;2023-04-15T00:00:14;8.82;;;4.55;;
23539;SDS011;11947;50.810;4.394;2023-04-15T00:02:40;9.60;;;4.32;;
23539;SDS011;11947;50.810;4.394;2023-04-15T00:05:06;8.00;;;4.50;;
23539;SDS011;11947;50.810;4.394;2023-04-15T00:07:32;6.32;;;3.75;;
23539;SDS011;11947;50.810;4.394;2023-04-15T00:09:58;9.27;;;3.88;;
23539;SDS011;11947;50.810;4.394;2023-04-15T00:12:24;9.20;;;4.05;;
23539;SDS011;11947;50.810;4.394;2023-04-15T00:14:50;9.07;;;4.43;;
23539;SDS011;11947;50.810;4.394;2023-04-15T00:17:16;7.53;;;4.20;;
23539;SDS011;11947;50.810;4.394;2023-04-15T00:19:42;10.23;;;4.15;;
23539;SDS011;11947;50.810;4.394;2023-04-15T00:22:11;10.15;;;4.38;;
23539;SDS011;11947;50.810;4.394;2023-04-15T00:24:37;9.38;;;4.00;;
23539;SDS011;11947;50.810;4.394;2023-04-15T00:27:03;6.90;;;3.80;;
23539;SDS011;11947;50.810;4.394;2023-04-15T00:29:29;10.50;;;3.90;;
23539;SDS011;11947;50.810;4.394;2023-04-15T00:31:55;6.00;;;3.50;;
23539;SDS011;11947;50.810;4.394;2023-04-15T00:34:22;7.82;;;3.75;;
23539;SDS011;11947;50.810;4.394;2023-04-15T00:36:48;7.22;;;3.90;;
23539;SDS011;11947;50.810;4.394;2023-04-15T00:39:14;7.82;;;3.40;;
23539;SDS011;11947;50.810;4.394;2023-04-15T00:41:40;8.55;;;4.10;;
23539;SDS011;11947;50.810;4.394;2023-04-15T00:44:07;7.82;;;4.15;;
23539;SDS011;11947;50.810;4.394;2023-04-15T00:46:37;7.47;;;4.03;;
23539;SDS011;11947;50.810;4.394;2023-04-15T00:49:04;9.68;;;4.00;;
23539;SDS011;11947;50.810;4.394;2023-04-15T00:51:31;10.82;;;4.30;;
23539;SDS011;11947;50.810;4.394;2023-04-15T00:53:59;11.50;;;3.78;;
23539;SDS011;11947;50.810;4.394;2023-04-15T00:56:26;10.95;;;4.57;;
23539;SDS011;11947;50.810;4.394;2023-04-15T00:58:53;11.13;;;4.55;;
23539;SDS011;11947;50.810;4.394;2023-04-15T01:01:22;13.80;;;4.20;;
23539;SDS011;11947;50.810;4.394;2023-04-15T01:03:50;8.32;;;4.00;;
23539;SDS011;11947;50.810;4.394;2023-04-15T01:06:16;9.63;;;4.68;;
23539;SDS011;11947;50.810;4.394;2023-04-15T01:08:43;6.90;;;4.22;;
23539;SDS011;11947;50.810;4.394;2023-04-15T01:11:09;10.27;;;4.93;;
23539;SDS011;11947;50.810;4.394;2023-04-15T01:13:37;12.88;;;4.72;;
23539;SDS011;11947;50.810;4.394;2023-04-15T01:16:03;7.25;;;4.35;;
23539;SDS011;11947;50.810;4.394;2023-04-15T01:18:29;7.20;;;4.55;;
23539;SDS011;11947;50.810;4.394;2023-04-15T01:20:55;9.57;;;4.68;;
23539;SDS011;11947;50.810;4.394;2023-04-15T01:23:21;10.13;;;5.10;;
23539;SDS011;11947;50.810;4.394;2023-04-15T01:25:48;11.55;;;5.00;;
23539;SDS011;11947;50.810;4.394;2023-04-15T01:28:15;11.93;;;5.15;;
23539;SDS011;11947;50.810;4.394;2023-04-15T01:30:40;8.00;;;4.97;;
23539;SDS011;11947;50.810;4.394;2023-04-15T01:33:06;8.70;;;5.15;;
23539;SDS011;11947;50.810;4.394;2023-04-15T01:35:32;8.75;;;5.18;;
23539;SDS011;11947;50.810;4.394;2023-04-15T01:38:02;9.40;;;4.82;;
23539;SDS011;11947;50.810;4.394;2023-04-15T01:40:31;9.48;;;4.32;;
23539;SDS011;11947;50.810;4.394;2023-04-15T01:42:57;13.02;;;4.53;;
23539;SDS011;11947;50.810;4.394;2023-04-15T01:45:23;9.52;;;5.05;;
23539;SDS011;11947;50.810;4.394;2023-04-15T01:47:49;8.55;;;4.22;;
23539;SDS011;11947;50.810;4.394;2023-04-15T01:50:14;8.40;;;4.50;;
23539;SDS011;11947;50.810;4.394;2023-04-15T01:52:40;7.28;;;4.65;;
23539;SDS011;11947;50.810;4.394;2023-04-15T01:55:06;7.05;;;4.05;;
23539;SDS011;11947;50.810;4.394;2023-04-15T01:57:33;8.27;;;4.43;;
23539;SDS011;11947;50.810;4.394;2023-04-15T01:59:58;12.27;;;4.72;;
23539;SDS011;11947;50.810;4.394;2023-04-15T02:02:24;8.63;;;4.57;;
23539;SDS011;11947;50.810;4.394;2023-04-15T02:04:50;8.90;;;4.88;;
23539;SDS011;11947;50.810;4.394;2023-04-15T02:07:16;9.90;;;4.90;;
23539;SDS011;11947;50.810;4.394;2023-04-15T02:09:42;8.93;;;5.15;;
23539;SDS011;11947;50.810;4.394;2023-04-15T02:12:08;9.02;;;4.72;;
23539;SDS011;11947;50.810;4.394;2023-04-15T02:14:33;10.98;;;5.05;;
23539;SDS011;11947;50.810;4.394;2023-04-15T02:16:59;8.07;;;4.40;;
23539;SDS011;11947;50.810;4.394;2023-04-15T02:19:31;8.90;;;4.50;;
23539;SDS011;11947;50.810;4.394;2023-04-15T02:21:58;8.93;;;4.03;;
23539;SDS011;11947;50.810;4.394;2023-04-15T02:24:24;8.30;;;4.40;;
23539;SDS011;11947;50.810;4.394;2023-04-15T02:26:50;5.95;;;3.72;;
23539;SDS011;11947;50.810;4.394;2023-04-15T02:29:15;10.52;;;4.22;;
23539;SDS011;11947;50.810;4.394;2023-04-15T02:31:41;7.57;;;4.03;;
23539;SDS011;11947;50.810;4.394;2023-04-15T02:34:07;9.52;;;4.43;;
23539;SDS011;11947;50.810;4.394;2023-04-15T02:36:33;9.82;;;4.70;;
23539;SDS011;11947;50.810;4.394;2023-04-15T02:38:59;9.48;;;4.85;;
23539;SDS011;11947;50.810;4.394;2023-04-15T02:41:24;9.38;;;4.88;;
23539;SDS011;11947;50.810;4.394;2023-04-15T02:43:52;10.85;;;4.70;;
23539;SDS011;11947;50.810;4.394;2023-04-15T02:46:18;9.52;;;5.03;;
23539;SDS011;11947;50.810;4.394;2023-04-15T02:48:43;10.60;;;5.25;;
23539;SDS011;11947;50.810;4.394;2023-04-15T02:51:12;9.25;;;5.00;;
23539;SDS011;11947;50.810;4.394;2023-04-15T02:53:43;8.57;;;5.20;;
23539;SDS011;11947;50.810;4.394;2023-04-15T02:56:10;11.40;;;5.28;;
23539;SDS011;11947;50.810;4.394;2023-04-15T02:58:36;8.32;;;4.80;;
23539;SDS011;11947;50.810;4.394;2023-04-15T03:01:02;10.73;;;5.15;;
23539;SDS011;11947;50.810;4.394;2023-04-15T03:03:27;9.80;;;5.20;;
23539;SDS011;11947;50.810;4.394;2023-04-15T03:05:53;10.38;;;5.45;;
23539;SDS011;11947;50.810;4.394;2023-04-15T03:08:19;10.85;;;5.00;;
23539;SDS011;11947;50.810;4.394;2023-04-15T03:10:47;10.07;;;5.47;;
23539;SDS011;11947;50.810;4.394;2023-04-15T03:13:13;11.73;;;5.53;;
23539;SDS011;11947;50.810;4.394;2023-04-15T03:15:38;9.48;;;5.20;;
23539;SDS011;11947;50.810;4.394;2023-04-15T03:18:04;10.57;;;5.65;;
23539;SDS011;11947;50.810;4.394;2023-04-15T03:20:29;11.65;;;5.22;;
23539;SDS011;11947;50.810;4.394;2023-04-15T03:22:55;13.73;;;5.97;;
23539;SDS011;11947;50.810;4.394;2023-04-15T03:25:21;19.52;;;6.32;;
23539;SDS011;11947;50.810;4.394;2023-04-15T03:27:46;20.20;;;7.05;;
23539;SDS011;11947;50.810;4.394;2023-04-15T03:30:12;21.77;;;7.72;;
23539;SDS011;11947;50.810;4.394;2023-04-15T03:32:38;22.95;;;7.70;;
23539;SDS011;11947;50.810;4.394;2023-04-15T03:35:04;32.00;;;9.82;;
23539;SDS011;11947;50.810;4.394;2023-04-15T03:37:30;31.50;;;9.45;;
23539;SDS011;11947;50.810;4.394;2023-04-15T03:39:56;33.30;;;11.73;;
23539;SDS011;11947;50.810;4.394;2023-04-15T03:42:21;41.72;;;12.85;;
23539;SDS011;11947;50.810;4.394;2023-04-15T03:44:47;40.67;;;13.85;;
23539;SDS011;11947;50.810;4.394;2023-04-15T03:47:13;40.35;;;13.27;;
23539;SDS011;11947;50.810;4.394;2023-04-15T03:49:39;41.13;;;13.68;;
23539;SDS011;11947;50.810;4.394;2023-04-15T03:52:05;35.33;;;12.20;;
23539;SDS011;11947;50.810;4.394;2023-04-15T03:54:30;33.35;;;12.35;;
23539;SDS011;11947;50.810;4.394;2023-04-15T03:56:56;36.33;;;13.15;;
23539;SDS011;11947;50.810;4.394;2023-04-15T03:59:22;32.42;;;12.38;;
23539;SDS011;11947;50.810;4.394;2023-04-15T04:01:48;27.83;;;11.75;;
23539;SDS011;11947;50.810;4.394;2023-04-15T04:04:13;26.48;;;11.10;;
23539;SDS011;11947;50.810;4.394;2023-04-15T04:06:39;26.05;;;11.05;;
23539;SDS011;11947;50.810;4.394;2023-04-15T04:09:05;23.75;;;10.68;;
23539;SDS011;11947;50.810;4.394;2023-04-15T04:11:30;26.92;;;11.10;;
23539;SDS011;11947;50.810;4.394;2023-04-15T04:13:57;28.60;;;11.60;;
23539;SDS011;11947;50.810;4.394;2023-04-15T04:16:23;26.17;;;12.25;;
23539;SDS011;11947;50.810;4.394;2023-04-15T04:18:48;25.02;;;12.10;;
23539;SDS011;11947;50.810;4.394;2023-04-15T04:21:14;25.65;;;12.70;;
23539;SDS011;11947;50.810;4.394;2023-04-15T04:23:40;26.50;;;13.02;;
23539;SDS011;11947;50.810;4.394;2023-04-15T04:26:05;30.15;;;12.18;;
23539;SDS011;11947;50.810;4.394;2023-04-15T04:28:31;23.92;;;10.85;;
23539;SDS011;11947;50.810;4.394;2023-04-15T04:30:57;25.73;;;10.93;;
23539;SDS011;11947;50.810;4.394;2023-04-15T04:33:24;25.95;;;11.30;;
23539;SDS011;11947;50.810;4.394;2023-04-15T04:35:50;22.70;;;11.68;;
23539;SDS011;11947;50.810;4.394;2023-04-15T04:38:15;20.48;;;10.35;;
23539;SDS011;11947;50.810;4.394;2023-04-15T04:40:41;26.38;;;11.50;;
23539;SDS011;11947;50.810;4.394;2023-04-15T04:43:06;22.38;;;10.98;;
23539;SDS011;11947;50.810;4.394;2023-04-15T04:45:33;22.75;;;11.18;;
23539;SDS011;11947;50.810;4.394;2023-04-15T04:47:58;23.73;;;10.98;;
23539;SDS011;11947;50.810;4.394;2023-04-15T04:50:24;23.60;;;11.27;;
23539;SDS011;11947;50.810;4.394;2023-04-15T04:52:50;19.38;;;10.55;;
23539;SDS011;11947;50.810;4.394;2023-04-15T04:55:15;23.33;;;10.95;;
23539;SDS011;11947;50.810;4.394;2023-04-15T04:57:41;22.40;;;10.73;;
23539;SDS011;11947;50.810;4.394;2023-04-15T05:00:07;24.83;;;10.30;;
23539;SDS011;11947;50.810;4.394;2023-04-15T05:02:33;28.17;;;10.90;;
23539;SDS011;11947;50.810;4.394;2023-04-15T05:04:59;19.08;;;10.40;;
23539;SDS011;11947;50.810;4.394;2023-04-15T05:07:25;22.75;;;10.77;;
23539;SDS011;11947;50.810;4.394;2023-04-15T05:09:51;22.38;;;11.88;;
23539;SDS011;11947;50.810;4.394;2023-04-15T05:12:17;23.60;;;10.88;;
23539;SDS011;11947;50.810;4.394;2023-04-15T05:14:43;23.95;;;10.65;;
23539;SDS011;11947;50.810;4.394;2023-04-15T05:17:08;21.55;;;10.43;;
23539;SDS011;11947;50.810;4.394;2023-04-15T05:19:35;22.95;;;11.27;;
23539;SDS011;11947;50.810;4.394;2023-04-15T05:22:01;21.85;;;10.05;;
23539;SDS011;11947;50.810;4.394;2023-04-15T05:24:26;24.63;;;10.27;;
23539;SDS011;11947;50.810;4.394;2023-04-15T05:26:52;19.17;;;10.20;;
23539;SDS011;11947;50.810;4.394;2023-04-15T05:29:17;19.63;;;9.90;;
23539;SDS011;11947;50.810;4.394;2023-04-15T05:31:44;19.40;;;10.13;;
23539;SDS011;11947;50.810;4.394;2023-04-15T05:34:10;20.00;;;10.55;;
23539;SDS011;11947;50.810;4.394;2023-04-15T05:36:36;22.48;;;9.60;;
23539;SDS011;11947;50.810;4.394;2023-04-15T05:39:02;17.15;;;9.55;;
23539;SDS011;11947;50.810;4.394;2023-04-15T05:41:28;15.23;;;8.95;;
23539;SDS011;11947;50.810;4.394;2023-04-15T05:43:53;19.73;;;8.75;;
23539;SDS011;11947;50.810;4.394;2023-04-15T05:46:20;16.50;;;8.13;;
23539;SDS011;11947;50.810;4.394;2023-04-15T05:48:46;16.45;;;8.68;;
23539;SDS011;11947;50.810;4.394;2023-04-15T05:51:12;24.23;;;8.93;;
23539;SDS011;11947;50.810;4.394;2023-04-15T05:53:37;18.65;;;8.45;;
23539;SDS011;11947;50.810;4.394;2023-04-15T05:56:05;16.75;;;8.30;;
23539;SDS011;11947;50.810;4.394;2023-04-15T05:58:31;21.60;;;8.32;;
23539;SDS011;11947;50.810;4.394;2023-04-15T06:00:56;20.15;;;8.10;;
23539;SDS011;11947;50.810;4.394;2023-04-15T06:03:22;15.70;;;8.75;;
23539;SDS011;11947;50.810;4.394;2023-04-15T06:05:47;18.77;;;9.18;;
23539;SDS011;11947;50.810;4.394;2023-04-15T06:08:13;15.82;;;8.55;;
23539;SDS011;11947;50.810;4.394;2023-04-15T06:10:38;19.00;;;9.02;;
23539;SDS011;11947;50.810;4.394;2023-04-15T06:13:04;16.60;;;8.75;;
23539;SDS011;11947;50.810;4.394;2023-04-15T06:15:31;19.10;;;9.60;;
23539;SDS011;11947;50.810;4.394;2023-04-15T06:17:56;21.42;;;10.27;;
23539;SDS011;11947;50.810;4.394;2023-04-15T06:20:22;17.95;;;9.60;;
23539;SDS011;11947;50.810;4.394;2023-04-15T06:22:48;21.92;;;9.73;;
23539;SDS011;11947;50.810;4.394;2023-04-15T06:25:13;21.23;;;10.20;;
23539;SDS011;11947;50.810;4.394;2023-04-15T06:27:39;18.50;;;9.60;;
23539;SDS011;11947;50.810;4.394;2023-04-15T06:30:05;18.88;;;9.73;;
23539;SDS011;11947;50.810;4.394;2023-04-15T06:32:31;22.25;;;9.70;;
23539;SDS011;11947;50.810;4.394;2023-04-15T06:34:57;19.27;;;9.68;;
23539;SDS011;11947;50.810;4.394;2023-04-15T06:37:23;20.15;;;9.65;;
23539;SDS011;11947;50.810;4.394;2023-04-15T06:39:48;17.33;;;9.70;;
23539;SDS011;11947;50.810;4.394;2023-04-15T06:42:14;18.58;;;9.88;;
23539;SDS011;11947;50.810;4.394;2023-04-15T06:44:40;23.42;;;10.20;;
23539;SDS011;11947;50.810;4.394;2023-04-15T06:47:06;19.25;;;9.50;;
23539;SDS011;11947;50.810;4.394;2023-04-15T06:49:33;19.35;;;9.93;;
23539;SDS011;11947;50.810;4.394;2023-04-15T06:51:59;21.35;;;10.13;;
23539;SDS011;11947;50.810;4.394;2023-04-15T06:54:24;21.92;;;9.48;;
23539;SDS011;11947;50.810;4.394;2023-04-15T06:56:50;18.13;;;9.30;;
23539;SDS011;11947;50.810;4.394;2023-04-15T06:59:16;16.40;;;9.23;;
23539;SDS011;11947;50.810;4.394;2023-04-15T07:01:42;18.95;;;9.40;;
23539;SDS011;11947;50.810;4.394;2023-04-15T07:04:08;16.75;;;8.40;;
23539;SDS011;11947;50.810;4.394;2023-04-15T07:06:35;14.73;;;8.07;;
23539;SDS011;11947;50.810;4.394;2023-04-15T07:09:00;18.20;;;8.05;;
23539;SDS011;11947;50.810;4.394;2023-04-15T07:11:27;17.48;;;8.30;;
23539;SDS011;11947;50.810;4.394;2023-04-15T07:13:53;18.27;;;7.85;;
23539;SDS011;11947;50.810;4.394;2023-04-15T07:16:18;15.00;;;7.68;;
23539;SDS011;11947;50.810;4.394;2023-04-15T07:18:44;13.30;;;7.53;;
23539;SDS011;11947;50.810;4.394;2023-04-15T07:21:09;14.57;;;7.43;;
23539;SDS011;11947;50.810;4.394;2023-04-15T07:23:35;17.60;;;7.80;;
23539;SDS011;11947;50.810;4.394;2023-04-15T07:26:01;15.60;;;7.57;;
23539;SDS011;11947;50.810;4.394;2023-04-15T07:28:27;15.48;;;7.60;;
23539;SDS011;11947;50.810;4.394;2023-04-15T07:30:53;12.93;;;6.95;;
23539;SDS011;11947;50.810;4.394;2023-04-15T07:33:21;12.30;;;7.07;;
23539;SDS011;11947;50.810;4.394;2023-04-15T07:35:46;18.17;;;7.43;;
23539;SDS011;11947;50.810;4.394;2023-04-15T07:38:12;13.50;;;7.32;;
23539;SDS011;11947;50.810;4.394;2023-04-15T07:40:38;20.48;;;8.18;;
23539;SDS011;11947;50.810;4.394;2023-04-15T07:43:04;15.57;;;7.45;;
23539;SDS011;11947;50.810;4.394;2023-04-15T07:45:30;17.38;;;8.02;;
23539;SDS011;11947;50.810;4.394;2023-04-15T07:47:56;14.13;;;7.35;;
23539;SDS011;11947;50.810;4.394;2023-04-15T07:50:22;14.57;;;7.90;;
23539;SDS011;11947;50.810;4.394;2023-04-15T07:52:51;15.90;;;8.63;;
23539;SDS011;11947;50.810;4.394;2023-04-15T07:55:17;18.23;;;10.07;;
23539;SDS011;11947;50.810;4.394;2023-04-15T07:57:45;17.92;;;8.80;;
23539;SDS011;11947;50.810;4.394;2023-04-15T08:00:11;15.65;;;8.85;;
23539;SDS011;11947;50.810;4.394;2023-04-15T08:02:38;15.43;;;8.85;;
23539;SDS011;11947;50.810;4.394;2023-04-15T08:05:04;16.10;;;10.10;;
23539;SDS011;11947;50.810;4.394;2023-04-15T08:07:31;22.70;;;10.10;;
23539;SDS011;11947;50.810;4.394;2023-04-15T08:09:57;17.10;;;9.40;;
23539;SDS011;11947;50.810;4.394;2023-04-15T08:12:23;19.38;;;10.13;;
23539;SDS011;11947;50.810;4.394;2023-04-15T08:14:49;22.67;;;9.98;;
23539;SDS011;11947;50.810;4.394;2023-04-15T08:17:15;15.63;;;9.38;;
23539;SDS011;11947;50.810;4.394;2023-04-15T08:19:40;20.67;;;9.90;;
23539;SDS011;11947;50.810;4.394;2023-04-15T08:22:06;20.65;;;9.93;;
23539;SDS011;11947;50.810;4.394;2023-04-15T08:24:32;18.70;;;10.32;;
23539;SDS011;11947;50.810;4.394;2023-04-15T08:26:58;21.42;;;10.27;;
23539;SDS011;11947;50.810;4.394;2023-04-15T08:29:25;17.55;;;9.80;;
23539;SDS011;11947;50.810;4.394;2023-04-15T08:31:51;18.85;;;9.63;;
23539;SDS011;11947;50.810;4.394;2023-04-15T08:34:18;20.15;;;10.60;;
23539;SDS011;11947;50.810;4.394;2023-04-15T08:36:43;22.42;;;10.18;;
23539;SDS011;11947;50.810;4.394;2023-04-15T08:39:09;15.88;;;10.23;;
23539;SDS011;11947;50.810;4.394;2023-04-15T08:41:44;17.80;;;10.65;;
23539;SDS011;11947;50.810;4.394;2023-04-15T08:44:12;22.52;;;11.30;;
23539;SDS011;11947;50.810;4.394;2023-04-15T08:46:38;21.50;;;11.43;;
23539;SDS011;11947;50.810;4.394;2023-04-15T08:49:07;23.48;;;11.15;;
23539;SDS011;11947;50.810;4.394;2023-04-15T08:51:35;19.67;;;11.23;;
23539;SDS011;11947;50.810;4.394;2023-04-15T08:54:01;20.25;;;11.15;;
23539;SDS011;11947;50.810;4.394;2023-04-15T08:56:27;20.27;;;11.43;;
23539;SDS011;11947;50.810;4.394;2023-04-15T08:58:56;20.10;;;10.95;;
23539;SDS011;11947;50.810;4.394;2023-04-15T09:01:23;23.63;;;10.95;;
23539;SDS011;11947;50.810;4.394;2023-04-15T09:03:49;20.60;;;11.60;;
23539;SDS011;11947;50.810;4.394;2023-04-15T09:06:16;20.52;;;11.82;;
23539;SDS011;11947;50.810;4.394;2023-04-15T09:08:42;19.48;;;10.20;;
23539;SDS011;11947;50.810;4.394;2023-04-15T09:11:08;19.85;;;11.88;;
23539;SDS011;11947;50.810;4.394;2023-04-15T09:13:34;21.02;;;11.25;;
23539;SDS011;11947;50.810;4.394;2023-04-15T09:16:00;19.42;;;11.20;;
23539;SDS011;11947;50.810;4.394;2023-04-15T09:18:29;17.92;;;10.90;;
23539;SDS011;11947;50.810;4.394;2023-04-15T09:21:02;17.52;;;10.50;;
23539;SDS011;11947;50.810;4.394;2023-04-15T09:23:36;21.88;;;11.43;;
23539;SDS011;11947;50.810;4.394;2023-04-15T09:26:03;18.08;;;10.60;;
23539;SDS011;11947;50.810;4.394;2023-04-15T09:28:29;18.52;;;11.07;;
23539;SDS011;11947;50.810;4.394;2023-04-15T09:30:56;16.83;;;9.07;;
23539;SDS011;11947;50.810;4.394;2023-04-15T09:33:22;15.70;;;8.32;;
23539;SDS011;11947;50.810;4.394;2023-04-15T09:36:07;14.32;;;8.05;;
23539;SDS011;11947;50.810;4.394;2023-04-15T09:38:32;17.77;;;7.70;;
23539;SDS011;11947;50.810;4.394;2023-04-15T09:40:58;11.63;;;6.97;;
23539;SDS011;11947;50.810;4.394;2023-04-15T09:43:36;12.05;;;6.72;;
23539;SDS011;11947;50.810;4.394;2023-04-15T09:46:03;11.48;;;7.00;;
23539;SDS011;11947;50.810;4.394;2023-04-15T09:48:29;13.85;;;7.28;;
23539;SDS011;11947;50.810;4.394;2023-04-15T09:50:58;12.43;;;7.28;;
23539;SDS011;11947;50.810;4.394;2023-04-15T09:53:25;14.55;;;8.43;;
23539;SDS011;11947;50.810;4.394;2023-04-15T09:55:51;13.43;;;7.55;;
23539;SDS011;11947;50.810;4.394;2023-04-15T09:58:23;11.15;;;6.68;;
23539;SDS011;11947;50.810;4.394;2023-04-15T10:00:54;10.15;;;6.25;;
23539;SDS011;11947;50.810;4.394;2023-04-15T10:03:25;9.85;;;6.28;;
23539;SDS011;11947;50.810;4.394;2023-04-15T10:05:52;9.52;;;6.47;;
23539;SDS011;11947;50.810;4.394;2023-04-15T10:08:20;12.10;;;6.32;;
23539;SDS011;11947;50.810;4.394;2023-04-15T10:10:48;12.38;;;6.50;;
23539;SDS011;11947;50.810;4.394;2023-04-15T10:13:18;8.75;;;6.85;;
23539;SDS011;11947;50.810;4.394;2023-04-15T10:16:09;11.00;;;6.38;;
23539;SDS011;11947;50.810;4.394;2023-04-15T10:18:37;10.45;;;5.63;;
23539;SDS011;11947;50.810;4.394;2023-04-15T10:21:06;8.57;;;5.40;;
23539;SDS011;11947;50.810;4.394;2023-04-15T10:23:33;9.35;;;5.70;;
23539;SDS011;11947;50.810;4.394;2023-04-15T10:25:58;7.75;;;5.93;;
23539;SDS011;11947;50.810;4.394;2023-04-15T10:28:25;7.47;;;4.97;;
23539;SDS011;11947;50.810;4.394;2023-04-15T10:30:51;7.82;;;5.22;;
23539;SDS011;11947;50.810;4.394;2023-04-15T10:33:17;8.05;;;5.18;;
23539;SDS011;11947;50.810;4.394;2023-04-15T10:35:45;7.75;;;5.50;;
23539;SDS011;11947;50.810;4.394;2023-04-15T10:38:47;7.15;;;5.55;;
23539;SDS011;11947;50.810;4.394;2023-04-15T10:41:17;6.43;;;4.60;;
23539;SDS011;11947;50.810;4.394;2023-04-15T10:43:50;8.65;;;5.35;;
23539;SDS011;11947;50.810;4.394;2023-04-15T10:46:22;6.32;;;4.50;;
23539;SDS011;11947;50.810;4.394;2023-04-15T10:48:48;7.55;;;4.88;;
23539;SDS011;11947;50.810;4.394;2023-04-15T10:51:16;7.38;;;5.07;;
23539;SDS011;11947;50.810;4.394;2023-04-15T10:53:55;7.20;;;4.90;;
23539;SDS011;11947;50.810;4.394;2023-04-15T10:56:22;5.57;;;4.50;;
23539;SDS011;11947;50.810;4.394;2023-04-15T10:58:47;5.60;;;4.47;;
23539;SDS011;11947;50.810;4.394;2023-04-15T11:01:13;6.70;;;4.30;;
23539;SDS011;11947;50.810;4.394;2023-04-15T11:03:39;4.72;;;4.22;;
23539;SDS011;11947;50.810;4.394;2023-04-15T11:06:07;6.05;;;4.30;;
23539;SDS011;11947;50.810;4.394;2023-04-15T11:11:22;4.65;;;3.50;;
23539;SDS011;11947;50.810;4.394;2023-04-15T11:14:08;5.32;;;4.00;;
23539;SDS011;11947;50.810;4.394;2023-04-15T11:19:08;4.90;;;4.03;;
23539;SDS011;11947;50.810;4.394;2023-04-15T11:21:34;3.10;;;2.80;;
23539;SDS011;11947;50.810;4.394;2023-04-15T11:24:00;3.45;;;2.50;;
23539;SDS011;11947;50.810;4.394;2023-04-15T11:26:26;4.07;;;3.60;;
23539;SDS011;11947;50.810;4.394;2023-04-15T11:28:54;4.07;;;3.67;;
23539;SDS011;11947;50.810;4.394;2023-04-15T11:31:20;3.63;;;3.30;;
23539;SDS011;11947;50.810;4.394;2023-04-15T11:36:24;4.13;;;3.65;;
23539;SDS011;11947;50.810;4.394;2023-04-15T11:38:54;4.88;;;3.95;;
23539;SDS011;11947;50.810;4.394;2023-04-15T11:41:21;4.25;;;3.85;;
23539;SDS011;11947;50.810;4.394;2023-04-15T11:43:48;4.32;;;3.92;;
23539;SDS011;11947;50.810;4.394;2023-04-15T11:46:14;4.50;;;4.00;;
23539;SDS011;11947;50.810;4.394;2023-04-15T11:48:41;4.03;;;3.67;;
23539;SDS011;11947;50.810;4.394;2023-04-15T11:51:09;3.75;;;3.42;;
23539;SDS011;11947;50.810;4.394;2023-04-15T11:56:01;5.03;;;4.10;;
23539;SDS011;11947;50.810;4.394;2023-04-15T11:58:28;5.03;;;3.40;;
23539;SDS011;11947;50.810;4.394;2023-04-15T12:00:57;2.28;;;2.10;;
23539;SDS011;11947;50.810;4.394;2023-04-15T12:06:16;5.35;;;2.83;;
23539;SDS011;11947;50.810;4.394;2023-04-15T12:08:47;3.75;;;3.40;;
23539;SDS011;11947;50.810;4.394;2023-04-15T12:11:13;4.32;;;3.38;;
23539;SDS011;11947;50.810;4.394;2023-04-15T12:13:46;3.75;;;3.15;;
23539;SDS011;11947;50.810;4.394;2023-04-15T12:16:12;4.25;;;3.47;;
23539;SDS011;11947;50.810;4.394;2023-04-15T12:18:43;4.63;;;3.80;;
23539;SDS011;11947;50.810;4.394;2023-04-15T12:21:10;5.30;;;4.03;;
23539;SDS011;11947;50.810;4.394;2023-04-15T12:23:37;4.93;;;4.43;;
23539;SDS011;11947;50.810;4.394;2023-04-15T12:26:04;5.55;;;4.15;;
23539;SDS011;11947;50.810;4.394;2023-04-15T12:28:33;4.72;;;4.18;;
23539;SDS011;11947;50.810;4.394;2023-04-15T12:31:05;4.03;;;3.60;;
23539;SDS011;11947;50.810;4.394;2023-04-15T12:33:32;4.68;;;3.53;;
23539;SDS011;11947;50.810;4.394;2023-04-15T12:35:58;4.60;;;3.78;;
23539;SDS011;11947;50.810;4.394;2023-04-15T12:38:24;6.07;;;4.85;;
23539;SDS011;11947;50.810;4.394;2023-04-15T12:40:49;6.47;;;5.10;;
23539;SDS011;11947;50.810;4.394;2023-04-15T12:43:15;4.60;;;3.65;;
23539;SDS011;11947;50.810;4.394;2023-04-15T12:45:41;4.43;;;4.03;;
23539;SDS011;11947;50.810;4.394;2023-04-15T12:48:07;3.20;;;2.90;;
23539;SDS011;11947;50.810;4.394;2023-04-15T12:50:33;4.22;;;3.75;;
23539;SDS011;11947;50.810;4.394;2023-04-15T12:52:59;4.05;;;3.00;;
23539;SDS011;11947;50.810;4.394;2023-04-15T12:55:25;3.80;;;3.08;;
23539;SDS011;11947;50.810;4.394;2023-04-15T12:57:51;3.80;;;2.50;;
23539;SDS011;11947;50.810;4.394;2023-04-15T13:00:17;4.82;;;3.00;;
23539;SDS011;11947;50.810;4.394;2023-04-15T13:02:43;3.40;;;2.90;;
23539;SDS011;11947;50.810;4.394;2023-04-15T13:05:08;3.08;;;2.78;;
23539;SDS011;11947;50.810;4.394;2023-04-15T13:07:34;3.65;;;2.95;;
23539;SDS011;11947;50.810;4.394;2023-04-15T13:10:00;4.43;;;2.80;;
23539;SDS011;11947;50.810;4.394;2023-04-15T13:12:26;4.53;;;2.95;;
23539;SDS011;11947;50.810;4.394;2023-04-15T13:14:51;3.60;;;3.20;;
23539;SDS011;11947;50.810;4.394;2023-04-15T13:17:17;4.05;;;3.50;;
23539;SDS011;11947;50.810;4.394;2023-04-15T13:19:44;5.35;;;3.63;;
23539;SDS011;11947;50.810;4.394;2023-04-15T13:22:10;4.00;;;2.85;;
23539;SDS011;11947;50.810;4.394;2023-04-15T13:24:36;7.32;;;3.42;;
23539;SDS011;11947;50.810;4.394;2023-04-15T13:27:03;3.42;;;3.10;;
23539;SDS011;11947;50.810;4.394;2023-04-15T13:29:29;5.60;;;4.25;;
23539;SDS011;11947;50.810;4.394;2023-04-15T13:31:55;4.95;;;3.60;;
23539;SDS011;11947;50.810;4.394;2023-04-15T13:34:21;4.45;;;3.63;;
23539;SDS011;11947;50.810;4.394;2023-04-15T13:36:46;3.70;;;3.30;;
23539;SDS011;11947;50.810;4.394;2023-04-15T13:39:12;6.60;;;4.43;;
23539;SDS011;11947;50.810;4.394;2023-04-15T13:41:37;3.67;;;3.10;;
23539;SDS011;11947;50.810;4.394;2023-04-15T13:44:03;4.43;;;3.60;;
23539;SDS011;11947;50.810;4.394;2023-04-15T13:46:30;5.20;;;4.60;;
23539;SDS011;11947;50.810;4.394;2023-04-15T13:48:55;7.10;;;3.60;;
23539;SDS011;11947;50.810;4.394;2023-04-15T13:51:21;4.93;;;3.17;;
23539;SDS011;11947;50.810;4.394;2023-04-15T13:53:46;5.68;;;3.03;;
23539;SDS011;11947;50.810;4.394;2023-04-15T13:56:12;3.95;;;3.10;;
23539;SDS011;11947;50.810;4.394;2023-04-15T13:58:39;5.45;;;2.95;;
23539;SDS011;11947;50.810;4.394;2023-04-15T14:01:05;5.53;;;3.35;;
23539;SDS011;11947;50.810;4.394;2023-04-15T14:03:30;6.18;;;3.20;;
23539;SDS011;11947;50.810;4.394;2023-04-15T14:05:56;3.08;;;2.70;;
23539;SDS011;11947;50.810;4.394;2023-04-15T14:08:23;4.65;;;2.83;;
23539;SDS011;11947;50.810;4.394;2023-04-15T14:10:49;3.60;;;2.55;;
23539;SDS011;11947;50.810;4.394;2023-04-15T14:13:15;4.88;;;2.95;;
23539;SDS011;11947;50.810;4.394;2023-04-15T14:15:40;5.97;;;2.92;;
23539;SDS011;11947;50.810;4.394;2023-04-15T14:18:06;3.05;;;2.70;;
23539;SDS011;11947;50.810;4.394;2023-04-15T14:20:32;5.25;;;2.97;;
23539;SDS011;11947;50.810;4.394;2023-04-15T14:22:58;6.20;;;3.25;;
23539;SDS011;11947;50.810;4.394;2023-04-15T14:25:23;4.13;;;3.03;;
23539;SDS011;11947;50.810;4.394;2023-04-15T14:27:51;3.97;;;3.38;;
23539;SDS011;11947;50.810;4.394;2023-04-15T14:30:16;5.63;;;3.28;;
23539;SDS011;11947;50.810;4.394;2023-04-15T14:32:42;4.07;;;2.88;;
23539;SDS011;11947;50.810;4.394;2023-04-15T14:35:07;8.52;;;2.72;;
23539;SDS011;11947;50.810;4.394;2023-04-15T14:37:33;4.57;;;2.60;;
23539;SDS011;11947;50.810;4.394;2023-04-15T14:39:58;5.35;;;2.40;;
23539;SDS011;11947;50.810;4.394;2023-04-15T14:42:24;3.30;;;1.77;;
23539;SDS011;11947;50.810;4.394;2023-04-15T14:44:50;4.20;;;1.70;;
23539;SDS011;11947;50.810;4.394;2023-04-15T14:47:15;5.03;;;2.00;;